Terminal Aerodrome Forecast
Issued by NWS Twin Cities, MN

Home | Current Version | Previous Version | Text Only | Print | Product List | Glossary Off
Versions: 1 2 3 4 5 6 7 8 9 10 11 12 13 14 15 16 17 18 19 20

205
FTUS43 KMPX 211136
TAFEAU
TAF
KEAU 211136Z 2112/2212 00000KT 6SM BR FEW004
      TEMPO 2112/2114 2SM BR SCT004
     FM211400 14006KT P6SM SCT050 BKN200
     FM211800 14010KT P6SM VCSH SCT050 OVC100
      TEMPO 2120/2124 6SM -TSRA BKN040CB
     FM220500 14010KT P6SM VCTS BKN050CB OVC100 PROB30 2205/2208 3SM
      -TSRA
     FM220800 08005KT P6SM BKN060=

USA.gov is the U.S. government's official web portal to all federal, state and local government web resources and services.